Time;durP1;ratioP1;P1;durP2;ratioP2;P2;SDS_P1;SDS_P2;PMS_P1;PMS_P2;Temp;Humidity;BMP_temperature;BMP_pressure;BME280_temperature;BME280_humidity;BME280_pressure;Samples;Min_cycle;Max_cycle;Signal;HPM_P1;HPM_P2
2021/09/18 00:01:32;;;;;;;1.40;1.07;;;;;;;12.84;100.00;100923.41;5016284;28;20220;-72
2021/09/18 00:03:59;;;;;;;1.20;1.00;;;;;;;12.77;100.00;100930.22;5000830;28;20208;-71
2021/09/18 00:06:27;;;;;;;2.13;1.13;;;;;;;12.73;100.00;100923.69;4999335;28;20239;-71
2021/09/18 00:08:53;;;;;;;3.17;1.00;;;;;;;12.74;100.00;100920.66;4999951;28;20192;-72
2021/09/18 00:11:18;;;;;;;3.33;1.20;;;;;;;12.65;100.00;100923.44;4966977;28;20227;-72
2021/09/18 00:13:44;;;;;;;3.50;1.23;;;;;;;12.73;100.00;100921.78;4999474;28;20257;-72
2021/09/18 00:16:09;;;;;;;2.20;1.40;;;;;;;12.63;100.00;100914.75;5015617;28;20220;-72
2021/09/18 00:18:34;;;;;;;2.60;1.13;;;;;;;12.79;100.00;100917.97;5015632;28;20186;-72
2021/09/18 00:21:02;;;;;;;4.10;1.37;;;;;;;12.71;100.00;100918.53;5015487;28;20589;-73
2021/09/18 00:23:31;;;;;;;1.67;1.30;;;;;;;12.58;100.00;100920.22;5015896;28;20339;-72
2021/09/18 00:25:59;;;;;;;3.77;1.20;;;;;;;12.68;100.00;100919.06;5015354;28;20244;-72
2021/09/18 00:28:24;;;;;;;2.70;1.33;;;;;;;12.50;100.00;100915.34;5005786;28;20203;-72
2021/09/18 00:30:50;;;;;;;4.27;1.30;;;;;;;12.62;100.00;100918.53;4998608;28;20215;-72
2021/09/18 00:33:20;;;;;;;2.07;1.07;;;;;;;12.68;100.00;100920.19;5016074;28;20678;-73
2021/09/18 00:35:45;;;;;;;2.37;1.30;;;;;;;12.77;100.00;100924.78;5015016;28;20220;-72
2021/09/18 00:38:12;;;;;;;4.17;1.40;;;;;;;12.74;100.00;100923.41;4999128;28;20180;-73
2021/09/18 00:40:40;;;;;;;2.13;1.10;;;;;;;12.60;100.00;100927.03;5004424;28;20754;-72
2021/09/18 00:43:06;;;;;;;2.10;1.40;;;;;;;12.47;100.00;100921.34;4996176;28;20201;-72
2021/09/18 00:45:32;;;;;;;1.20;0.90;;;;;;;12.57;100.00;100910.41;5002671;28;20709;-72
2021/09/18 00:47:58;;;;;;;2.70;1.10;;;;;;;12.38;100.00;100918.38;4994178;28;20216;-72
2021/09/18 00:50:23;;;;;;;2.07;0.80;;;;;;;12.38;100.00;100917.53;5011665;28;20275;-71
2021/09/18 00:52:49;;;;;;;3.63;1.13;;;;;;;12.49;100.00;100919.16;4995501;28;20212;-72
2021/09/18 00:55:19;;;;;;;1.60;1.00;;;;;;;12.38;100.00;100923.84;4986852;28;20196;-72
2021/09/18 00:57:45;;;;;;;2.57;1.27;;;;;;;12.29;100.00;100913.78;5006947;28;20199;-71
2021/09/18 01:00:13;;;;;;;3.20;1.30;;;;;;;12.31;100.00;100923.31;4997397;28;20576;-72
2021/09/18 01:02:41;;;;;;;2.73;1.60;;;;;;;12.54;100.00;100919.94;4979555;28;20236;-72
2021/09/18 01:05:07;;;;;;;2.23;1.10;;;;;;;12.75;100.00;100930.50;5012759;28;20185;-72
2021/09/18 01:07:34;;;;;;;2.33;1.27;;;;;;;12.69;100.00;100931.63;4995651;28;20228;-72
2021/09/18 01:10:02;;;;;;;2.83;1.20;;;;;;;12.65;100.00;100928.91;4983156;28;20267;-72
2021/09/18 01:12:30;;;;;;;2.40;1.20;;;;;;;12.69;100.00;100925.31;4998572;28;20654;-71
2021/09/18 01:14:55;;;;;;;1.70;1.23;;;;;;;12.61;100.00;100927.84;4999272;28;20553;-72
2021/09/18 01:17:23;;;;;;;1.40;1.00;;;;;;;12.65;100.00;100928.91;5014633;28;20220;-72
2021/09/18 01:19:53;;;;;;;2.03;1.10;;;;;;;12.96;100.00;100936.69;4998865;28;20185;-73
2021/09/18 01:22:19;;;;;;;1.67;1.10;;;;;;;12.87;100.00;100933.72;4998096;28;20224;-72
2021/09/18 01:24:47;;;;;;;2.50;1.30;;;;;;;12.83;100.00;100932.66;5030626;28;20181;-73
2021/09/18 01:27:15;;;;;;;4.53;1.20;;;;;;;12.74;100.00;100922.59;5003424;28;20225;-73
2021/09/18 01:29:42;;;;;;;1.40;1.20;;;;;;;12.79;100.00;100926.16;5013418;28;20188;-72
2021/09/18 01:32:08;;;;;;;1.77;1.20;;;;;;;12.75;100.00;100922.31;4997933;28;20232;-72
2021/09/18 01:34:36;;;;;;;3.17;1.30;;;;;;;12.86;100.00;100915.75;5015113;28;20211;-72
2021/09/18 01:37:04;;;;;;;1.27;1.17;;;;;;;12.90;100.00;100922.28;5014055;28;20224;-71
2021/09/18 01:39:29;;;;;;;2.53;1.40;;;;;;;12.94;100.00;100926.06;5013878;28;20196;-72
2021/09/18 01:41:57;;;;;;;1.57;1.30;;;;;;;12.87;100.00;100933.72;4994240;28;20220;-71
2021/09/18 01:44:27;;;;;;;2.63;1.10;;;;;;;13.15;100.00;100922.13;4995268;28;20667;-73
2021/09/18 01:46:53;;;;;;;1.93;1.10;;;;;;;13.36;100.00;100926.34;5014105;28;20643;-71
2021/09/18 01:49:18;;;;;;;1.93;1.10;;;;;;;13.31;100.00;100920.91;5014242;28;20275;-71
2021/09/18 01:51:55;;;;;;;1.80;1.10;;;;;;;13.45;100.00;100924.66;5013785;28;20228;-71
2021/09/18 01:54:20;;;;;;;1.60;1.20;;;;;;;13.45;100.00;100921.94;4999331;28;20210;-71
2021/09/18 01:56:48;;;;;;;1.27;1.00;;;;;;;13.49;100.00;100926.53;5021411;28;20208;-71
2021/09/18 01:59:13;;;;;;;3.03;1.13;;;;;;;13.45;100.00;100920.81;5008720;28;20176;-72
2021/09/18 02:01:39;;;;;;;1.83;1.10;;;;;;;13.26;100.00;100921.78;5004089;28;20279;-71
2021/09/18 02:04:04;;;;;;;1.23;1.10;;;;;;;13.35;100.00;100916.53;4978297;28;20208;-72
2021/09/18 02:06:39;;;;;;;2.33;1.13;;;;;;;13.29;100.00;100921.19;4985468;28;20220;-71
2021/09/18 02:09:05;;;;;;;1.30;1.20;;;;;;;13.28;100.00;100919.59;4999340;28;20584;-71
2021/09/18 02:11:33;;;;;;;1.67;1.10;;;;;;;13.27;100.00;100917.13;4994263;28;20225;-71
2021/09/18 02:14:00;;;;;;;3.20;1.20;;;;;;;13.11;100.00;100912.88;5015940;28;20204;-71
2021/09/18 02:16:28;;;;;;;3.00;1.17;;;;;;;12.90;100.00;100919.53;5024014;28;20596;-71
2021/09/18 02:18:54;;;;;;;1.93;1.20;;;;;;;12.94;100.00;100917.06;5047901;28;20196;-71
2021/09/18 02:21:24;;;;;;;2.53;1.20;;;;;;;12.99;100.00;100926.03;5015097;28;20223;-71
2021/09/18 02:23:52;;;;;;;2.17;1.20;;;;;;;13.31;100.00;100923.66;5031275;28;20606;-72
2021/09/18 02:26:17;;;;;;;2.17;1.30;;;;;;;13.41;100.00;100918.94;5016113;28;20304;-71
2021/09/18 02:28:45;;;;;;;1.10;1.00;;;;;;;13.37;100.00;100922.50;5012798;28;20182;-71
2021/09/18 02:31:13;;;;;;;2.23;1.07;;;;;;;13.31;100.00;100923.66;5026094;28;20234;-72
2021/09/18 02:33:39;;;;;;;1.53;1.10;;;;;;;13.42;100.00;100917.03;5014046;28;20228;-71
2021/09/18 02:36:06;;;;;;;2.23;1.30;;;;;;;13.55;100.00;100928.09;4997008;28;20212;-72
2021/09/18 02:38:32;;;;;;;2.17;1.00;;;;;;;13.59;100.00;100921.81;5013382;28;20638;-72
2021/09/18 02:40:57;;;;;;;3.37;1.50;;;;;;;13.61;100.00;100925.06;5013414;28;20220;-71
2021/09/18 02:43:25;;;;;;;2.40;1.00;;;;;;;13.64;100.00;100929.13;5028586;28;20208;-72
2021/09/18 02:45:53;;;;;;;2.77;1.10;;;;;;;13.56;100.00;100919.63;5030781;28;20212;-71
2021/09/18 02:48:21;;;;;;;3.37;1.20;;;;;;;13.41;100.00;100929.88;5013286;28;20188;-72
2021/09/18 02:50:47;;;;;;;3.17;1.07;;;;;;;13.36;100.00;100921.69;4996809;28;20567;-72
2021/09/18 02:53:17;;;;;;;1.60;1.20;;;;;;;13.37;100.00;100922.50;5013779;28;20204;-71
2021/09/18 02:55:43;;;;;;;3.33;1.50;;;;;;;13.46;100.00;100930.63;5030764;28;20899;-71
2021/09/18 02:58:08;;;;;;;2.27;1.50;;;;;;;13.48;100.00;100920.25;4993591;28;20176;-72
2021/09/18 03:00:34;;;;;;;4.00;1.60;;;;;;;13.73;100.00;100922.75;4996620;28;20598;-71
2021/09/18 03:03:05;;;;;;;3.73;1.50;;;;;;;13.69;100.00;100921.72;5031063;28;20208;-71
2021/09/18 03:05:30;;;;;;;2.30;1.57;;;;;;;13.77;100.00;100923.81;4996627;28;20224;-72
2021/09/18 03:07:58;;;;;;;3.80;1.70;;;;;;;13.81;100.00;100922.16;5029153;28;20212;-72
2021/09/18 03:10:28;;;;;;;2.03;1.60;;;;;;;13.83;100.00;100928.16;5013666;28;20288;-71
2021/09/18 03:12:54;;;;;;;1.40;1.30;;;;;;;13.70;100.00;100917.91;5001595;28;20281;-71
2021/09/18 03:15:24;;;;;;;1.80;1.50;;;;;;;13.42;100.00;100917.84;5000121;28;20589;-71
2021/09/18 03:17:52;;;;;;;2.27;1.40;;;;;;;13.71;100.00;100919.50;5018161;28;20654;-71
2021/09/18 03:20:17;;;;;;;1.70;1.30;;;;;;;13.82;100.00;100921.84;5000512;28;20188;-71
2021/09/18 03:22:43;;;;;;;1.93;1.30;;;;;;;13.82;100.00;100921.06;5014387;28;20323;-72
2021/09/18 03:25:12;;;;;;;3.73;1.67;;;;;;;13.93;100.00;100917.94;5016005;28;20220;-72
2021/09/18 03:27:40;;;;;;;1.70;1.43;;;;;;;13.83;100.00;100918.03;5007330;28;20303;-71
2021/09/18 03:30:07;;;;;;;2.20;1.43;;;;;;;13.89;100.00;100921.53;5016574;28;20646;-71
2021/09/18 03:32:32;;;;;;;2.30;1.33;;;;;;;13.78;100.00;100925.47;5017713;28;20192;-71
2021/09/18 03:34:58;;;;;;;3.30;1.47;;;;;;;13.61;100.00;100922.34;5001052;28;20183;-71
2021/09/18 03:37:25;;;;;;;2.53;1.60;;;;;;;13.50;100.00;100923.50;5016774;28;20228;-71
2021/09/18 03:39:51;;;;;;;2.40;1.40;;;;;;;13.67;100.00;100920.38;5017402;28;20218;-71
2021/09/18 03:42:24;;;;;;;3.43;1.80;;;;;;;13.79;100.00;100927.09;5000795;28;20220;-71
2021/09/18 03:44:49;;;;;;;1.80;1.70;;;;;;;13.74;100.00;100927.13;5017227;28;20188;-71
2021/09/18 03:47:15;;;;;;;2.93;1.90;;;;;;;14.04;100.00;100918.69;5015727;28;20394;-71
2021/09/18 03:49:43;;;;;;;2.43;1.57;;;;;;;13.96;100.00;100927.50;5000059;28;20180;-71
2021/09/18 03:52:09;;;;;;;4.23;1.97;;;;;;;13.96;100.00;100922.03;4999849;28;20750;-71
2021/09/18 03:54:35;;;;;;;4.40;2.23;;;;;;;14.06;100.00;100916.47;5016774;28;20188;-71
2021/09/18 03:57:05;;;;;;;3.33;2.10;;;;;;;13.77;100.00;100918.34;5001019;28;20220;-71
2021/09/18 03:59:33;;;;;;;3.13;2.07;;;;;;;13.81;100.00;100919.44;5032365;28;20197;-71
2021/09/18 04:01:58;;;;;;;6.30;2.70;;;;;;;14.04;100.00;100924.16;5016071;28;20218;-71
2021/09/18 04:04:26;;;;;;;2.63;2.43;;;;;;;13.84;100.00;100924.31;5003978;28;20208;-71
2021/09/18 04:06:52;;;;;;;3.80;2.60;;;;;;;13.74;100.00;100924.41;4999471;28;20235;-71
2021/09/18 04:09:18;;;;;;;4.10;3.00;;;;;;;14.05;100.00;100923.06;4999695;28;20188;-71
2021/09/18 04:11:43;;;;;;;4.97;3.17;;;;;;;14.11;100.00;100930.09;4999392;28;20614;-71
2021/09/18 04:14:09;;;;;;;6.60;3.53;;;;;;;14.05;100.00;100925.81;5015853;28;20266;-71
2021/09/18 04:16:37;;;;;;;6.37;3.90;;;;;;;14.16;100.00;100922.66;5016109;28;20215;-71
2021/09/18 04:19:09;;;;;;;5.30;3.40;;;;;;;13.95;100.00;100925.84;5007264;28;20181;-71
2021/09/18 04:21:37;;;;;;;4.20;3.30;;;;;;;13.88;100.00;100919.91;4983539;28;20216;-71
2021/09/18 04:24:04;;;;;;;6.83;4.00;;;;;;;13.91;100.00;100930.25;4989975;28;20632;-71
2021/09/18 04:26:32;;;;;;;5.10;3.40;;;;;;;13.85;100.00;100926.75;5029030;28;20260;-71
2021/09/18 04:29:01;;;;;;;5.87;3.50;;;;;;;14.06;100.00;100930.13;5006416;28;20199;-71
2021/09/18 04:31:29;;;;;;;5.80;3.47;;;;;;;14.08;100.00;100941.59;5031783;28;20228;-71
2021/09/18 04:33:54;;;;;;;4.93;3.87;;;;;;;13.89;100.00;100927.00;5016158;28;20204;-71
2021/09/18 04:36:20;;;;;;;6.00;3.83;;;;;;;14.05;100.00;100939.47;5015131;28;20220;-72
2021/09/18 04:38:48;;;;;;;5.47;4.17;;;;;;;14.04;100.00;100940.53;4999449;28;20173;-72
2021/09/18 04:41:14;;;;;;;6.20;4.40;;;;;;;14.25;100.00;100943.59;4998875;28;20310;-72
2021/09/18 04:43:44;;;;;;;7.93;4.60;;;;;;;14.31;100.00;100947.91;5015889;28;20200;-71
2021/09/18 04:46:09;;;;;;;7.30;4.80;;;;;;;14.35;100.00;100957.16;5015244;28;20290;-72
2021/09/18 04:48:37;;;;;;;7.77;4.57;;;;;;;14.28;100.00;100948.50;4999283;28;20180;-71
2021/09/18 04:51:05;;;;;;;6.60;5.10;;;;;;;14.16;100.00;100943.72;5015181;28;20283;-72
2021/09/18 04:53:33;;;;;;;8.00;5.50;;;;;;;14.21;100.00;100949.13;4999487;28;20689;-72
2021/09/18 04:56:01;;;;;;;7.93;5.30;;;;;;;14.13;100.00;100955.22;5000452;28;20220;-72
2021/09/18 04:58:31;;;;;;;9.23;5.90;;;;;;;14.27;100.00;100957.00;5006665;28;20188;-72
2021/09/18 05:00:57;;;;;;;8.57;5.30;;;;;;;14.27;100.00;100966.00;4999309;28;20277;-72
2021/09/18 05:03:24;;;;;;;9.63;5.60;;;;;;;14.18;100.00;100955.16;5015113;28;20204;-72
2021/09/18 05:05:54;;;;;;;8.23;5.10;;;;;;;14.35;100.00;100954.41;5015241;28;20689;-71
2021/09/18 05:08:22;;;;;;;8.47;5.30;;;;;;;14.42;100.00;100960.38;5000229;28;20180;-71
2021/09/18 05:10:48;;;;;;;7.53;5.50;;;;;;;14.48;100.00;100972.06;4998398;28;20246;-71
2021/09/18 05:13:13;;;;;;;9.37;5.47;;;;;;;14.39;100.00;100976.53;4998795;28;20216;-72
2021/09/18 05:15:39;;;;;;;8.00;5.57;;;;;;;14.29;100.00;100966.50;5014349;28;20607;-71
2021/09/18 05:18:07;;;;;;;8.37;5.70;;;;;;;14.08;100.00;100968.91;5032505;28;20215;-72
2021/09/18 05:20:33;;;;;;;8.17;5.20;;;;;;;14.07;100.00;100972.75;5031803;28;20254;-72
2021/09/18 05:22:59;;;;;;;8.43;5.23;;;;;;;14.12;100.00;100969.97;5032157;28;20642;-73
2021/09/18 05:25:24;;;;;;;9.70;6.30;;;;;;;14.25;100.00;100976.41;4987933;28;20197;-74
2021/09/18 05:27:50;;;;;;;10.50;6.10;;;;;;;14.29;100.00;100977.44;5006424;28;20204;-73
2021/09/18 05:30:18;;;;;;;9.23;6.00;;;;;;;14.25;100.00;100981.88;5022775;28;20593;-73
2021/09/18 05:32:46;;;;;;;8.60;5.77;;;;;;;14.38;100.00;100985.84;4998297;28;20212;-73
2021/09/18 05:35:12;;;;;;;10.00;6.90;;;;;;;14.27;100.00;100985.13;5013863;28;20185;-72
2021/09/18 05:37:38;;;;;;;11.30;6.53;;;;;;;14.27;100.00;100985.13;5031869;28;20179;-72
2021/09/18 05:40:04;;;;;;;9.70;6.53;;;;;;;14.26;100.00;100993.59;5013542;28;20184;-73
2021/09/18 05:42:30;;;;;;;9.93;6.93;;;;;;;14.26;100.00;100991.69;5014758;28;20566;-73
2021/09/18 05:45:00;;;;;;;11.67;7.07;;;;;;;14.41;100.00;100987.97;4998399;28;20168;-72
2021/09/18 05:47:30;;;;;;;10.07;6.80;;;;;;;14.05;100.00;100985.91;5014562;28;20224;-71
2021/09/18 05:50:02;;;;;;;12.47;7.20;;;;;;;14.39;100.00;100992.91;4994688;28;20248;-72
2021/09/18 05:52:27;;;;;;;11.53;7.20;;;;;;;14.41;100.00;100990.72;5010800;28;20303;-72
2021/09/18 05:54:53;;;;;;;11.23;7.03;;;;;;;14.43;100.00;100993.97;4997301;28;20184;-72
2021/09/18 05:57:23;;;;;;;11.80;7.57;;;;;;;14.50;100.00;100988.97;5002049;28;20220;-72
2021/09/18 05:59:53;;;;;;;13.00;8.27;;;;;;;14.57;100.00;100994.94;4999526;28;20180;-72
2021/09/18 06:02:21;;;;;;;14.00;8.27;;;;;;;14.60;100.00;100997.91;5000394;28;20274;-72
2021/09/18 06:04:49;;;;;;;13.23;8.80;;;;;;;14.61;100.00;100995.97;5015979;28;20188;-72
2021/09/18 06:07:17;;;;;;;10.10;7.30;;;;;;;14.66;100.00;100997.53;5015799;28;20245;-72
2021/09/18 06:09:43;;;;;;;12.47;7.90;;;;;;;14.69;100.00;101007.91;4997879;28;20670;-72
2021/09/18 06:12:11;;;;;;;11.57;8.27;;;;;;;14.84;100.00;100991.31;4998210;28;20259;-72
2021/09/18 06:14:42;;;;;;;12.00;8.10;;;;;;;14.87;100.00;100993.50;5032463;28;20670;-72
2021/09/18 06:17:07;;;;;;;11.70;8.23;;;;;;;14.91;100.00;100990.94;4995819;28;20231;-73
2021/09/18 06:19:35;;;;;;;11.27;8.10;;;;;;;14.97;100.00;100995.28;4995903;28;20181;-72
2021/09/18 06:22:05;;;;;;;11.47;8.77;;;;;;;14.97;100.00;101001.56;4979340;28;20232;-73
2021/09/18 06:24:33;;;;;;;12.60;8.73;;;;;;;14.93;100.00;100994.25;5011672;28;20208;-73
2021/09/18 06:26:59;;;;;;;14.33;9.23;;;;;;;14.80;100.00;101011.34;5005542;28;20366;-73
2021/09/18 06:29:26;;;;;;;13.10;9.30;;;;;;;14.88;100.00;101014.25;5013778;28;20184;-73
2021/09/18 06:31:55;;;;;;;11.37;9.07;;;;;;;15.04;100.00;101008.31;5010048;28;20204;-71
2021/09/18 06:34:20;;;;;;;13.53;9.63;;;;;;;15.12;100.00;101004.09;5014235;28;20212;-70
2021/09/18 06:36:51;;;;;;;11.93;9.60;;;;;;;15.15;100.00;101006.28;5012656;28;20220;-70
2021/09/18 06:39:18;;;;;;;12.97;9.67;;;;;;;15.15;100.00;101003.56;5031209;28;20282;-71
2021/09/18 06:41:44;;;;;;;13.73;9.77;;;;;;;15.15;100.00;101003.56;5006170;28;20225;-70
2021/09/18 06:44:10;;;;;;;12.03;9.50;;;;;;;15.28;100.00;101014.59;4994872;28;20216;-69
2021/09/18 06:46:35;;;;;;;12.60;9.63;;;;;;;15.35;100.00;101015.03;5012258;28;20224;-69
2021/09/18 06:49:01;;;;;;;13.83;9.97;;;;;;;15.36;100.00;101019.41;4980683;28;20562;-71
2021/09/18 06:51:27;;;;;;;10.40;9.10;;;;;;;15.45;100.00;101017.63;5003467;28;20215;-72
2021/09/18 06:53:53;;;;;;;11.43;9.03;;;;;;;15.37;100.00;101020.25;5013447;28;20328;-71
2021/09/18 06:56:18;;;;;;;11.47;9.20;;;;;;;15.49;100.00;101019.50;5000570;28;20219;-72
2021/09/18 06:58:46;;;;;;;13.37;9.70;;;;;;;15.63;100.00;101022.31;5020977;28;20210;-71
2021/09/18 07:01:14;;;;;;;12.13;10.50;;;;;;;15.68;100.00;101025.78;5006446;28;20312;-72
2021/09/18 07:03:40;;;;;;;11.00;9.23;;;;;;;15.67;100.00;101023.34;4993747;28;20200;-71
2021/09/18 07:06:05;;;;;;;11.23;9.70;;;;;;;15.71;100.00;101029.84;5014449;28;20231;-72
2021/09/18 07:08:33;;;;;;;10.90;9.80;;;;;;;15.94;100.00;101024.28;5030594;28;20192;-71
2021/09/18 07:11:01;;;;;;;11.77;9.00;;;;;;;15.96;100.00;101022.88;5009775;28;20224;-72
2021/09/18 07:13:28;;;;;;;11.20;10.00;;;;;;;15.92;100.00;101021.84;5021457;28;20270;-71
2021/09/18 07:15:56;;;;;;;11.00;9.83;;;;;;;15.63;100.00;101022.31;4997691;28;20311;-72
2021/09/18 07:18:24;;;;;;;9.77;8.73;;;;;;;15.94;100.00;101029.78;5030259;28;20866;-72
2021/09/18 07:20:49;;;;;;;10.40;8.48;;;;;;;16.18;100.00;101023.91;5013150;28;20230;-72
2021/09/18 07:23:17;;;;;;;9.20;7.97;;;;;;;16.48;100.00;101019.81;4997723;28;20681;-72
2021/09/18 07:25:43;;;;;;;9.65;8.75;;;;;;;16.21;100.00;101030.72;4996548;28;20211;-73
2021/09/18 07:28:08;;;;;;;9.20;8.35;;;;;;;16.06;100.00;101030.13;5015307;28;20574;-73
2021/09/18 07:30:34;;;;;;;9.75;8.40;;;;;;;16.11;100.00;101028.09;5012793;28;20598;-71
2021/09/18 07:33:02;;;;;;;9.93;8.93;;;;;;;15.86;100.00;101028.53;4999800;28;20270;-71
2021/09/18 07:35:35;;;;;;;10.93;9.63;;;;;;;16.03;100.00;101026.06;5012382;28;20224;-71
2021/09/18 07:38:03;;;;;;;10.52;9.43;;;;;;;16.08;100.00;101036.09;5011894;28;20200;-70
2021/09/18 07:40:32;;;;;;;11.63;9.85;;;;;;;16.20;100.00;101026.34;5012939;28;20303;-71
2021/09/18 07:42:58;;;;;;;10.73;9.70;;;;;;;15.85;100.00;101042.50;4995976;28;20196;-73
2021/09/18 07:45:26;;;;;;;10.15;9.25;;;;;;;16.18;100.00;101036.78;5027667;28;20180;-72
2021/09/18 07:47:57;;;;;;;9.25;8.40;;;;;;;16.40;100.00;101034.22;4992791;28;20205;-71
2021/09/18 07:50:25;;;;;;;9.93;8.98;;;;;;;16.49;100.00;101035.16;4992927;28;20232;-72
2021/09/18 07:52:53;;;;;;;10.15;9.15;;;;;;;16.28;100.00;101042.09;5021994;28;20686;-72
2021/09/18 07:55:21;;;;;;;10.57;9.25;;;;;;;16.25;100.00;101048.19;4977022;28;20188;-71
2021/09/18 07:57:49;;;;;;;9.68;8.77;;;;;;;16.27;100.00;101051.47;4996830;28;20536;-72
2021/09/18 08:00:18;;;;;;;11.10;9.50;;;;;;;16.40;100.00;101056.16;4998443;28;20192;-73
2021/09/18 08:02:44;;;;;;;9.90;9.00;;;;;;;16.56;100.00;101050.91;4984493;28;20213;-73
2021/09/18 08:05:10;;;;;;;9.73;8.73;;;;;;;16.52;100.00;101054.59;4999456;28;20183;-72
2021/09/18 08:07:38;;;;;;;9.15;8.35;;;;;;;16.67;100.00;101052.38;5005255;28;20339;-73
2021/09/18 08:10:13;;;;;;;10.63;9.05;;;;;;;16.43;100.00;101061.06;5015131;28;20200;-73
2021/09/18 08:12:41;;;;;;;8.25;7.55;;;;;;;16.73;100.00;101062.13;4998484;28;20656;-73
2021/09/18 08:15:09;;;;;;;8.82;7.93;;;;;;;16.59;100.00;101054.97;5007969;28;20184;-72
2021/09/18 08:17:39;;;;;;;7.25;6.55;;;;;;;16.44;100.00;101068.16;5000482;28;20204;-73
2021/09/18 08:20:08;;;;;;;7.32;6.72;;;;;;;16.31;100.00;101064.25;5015540;28;20191;-71
2021/09/18 08:22:38;;;;;;;6.82;6.07;;;;;;;16.61;100.00;101064.56;5014730;28;20690;-71
2021/09/18 08:25:10;;;;;;;6.32;5.72;;;;;;;16.77;100.00;101067.81;5012053;28;20302;-72
2021/09/18 08:27:36;;;;;;;6.72;6.13;;;;;;;16.73;100.00;101067.63;5021605;28;20311;-70
2021/09/18 08:30:02;;;;;;;6.57;5.88;;;;;;;16.65;100.00;101065.56;5015947;28;20223;-72
2021/09/18 08:32:29;;;;;;;6.57;5.97;;;;;;;17.00;100.00;101070.41;4999509;28;20212;-72
2021/09/18 08:35:00;;;;;;;5.72;5.15;;;;;;;17.36;100.00;101067.47;5015866;28;20304;-71
2021/09/18 08:37:29;;;;;;;5.90;5.30;;;;;;;17.20;100.00;101072.78;5032524;28;20212;-70
2021/09/18 08:39:55;;;;;;;5.22;4.78;;;;;;;17.19;100.00;101076.63;4999306;28;20260;-71
2021/09/18 08:42:22;;;;;;;5.45;4.53;;;;;;;17.29;100.00;101076.41;5032649;28;20703;-71
2021/09/18 08:44:48;;;;;;;4.80;4.28;;;;;;;17.66;100.00;101072.31;4999839;28;20323;-72
2021/09/18 08:47:13;;;;;;;4.90;4.40;;;;;;;17.95;100.00;101075.50;4998364;28;20240;-71
2021/09/18 08:49:39;;;;;;;4.22;3.83;;;;;;;17.85;100.00;101070.22;4998917;28;20642;-69
2021/09/18 08:52:07;;;;;;;4.20;3.80;;;;;;;17.52;100.00;101087.19;4998899;28;20232;-74
2021/09/18 08:54:39;;;;;;;4.20;3.80;;;;;;;17.41;100.00;101086.59;5000428;28;20196;-73
2021/09/18 08:57:04;;;;;;;4.57;4.18;;;;;;;17.44;100.00;101082.44;5025124;28;20724;-73
2021/09/18 08:59:30;;;;;;;3.88;3.55;;;;;;;17.73;100.00;101083.72;5030821;28;20188;-72
2021/09/18 09:02:12;;;;;;;4.50;3.55;;;;;;;17.66;100.00;101088.81;4999327;28;20224;-73
2021/09/18 09:04:37;;;;;;;3.47;3.17;;;;;;;17.66;100.00;101083.31;5033344;28;20693;-72
2021/09/18 09:07:03;;;;;;;3.60;3.30;;;;;;;17.53;100.00;101089.63;5014817;28;20228;-73
2021/09/18 09:09:59;;;;;;;4.22;3.53;;;;;;;17.77;100.00;101084.72;5014128;28;20192;-72
2021/09/18 09:12:30;;;;;;;3.80;3.50;;;;;;;17.90;100.00;101084.69;5014314;28;20221;-72
2021/09/18 09:15:02;;;;;;;3.25;3.05;;;;;;;17.83;100.00;101088.97;4995463;28;20188;-71
2021/09/18 09:17:32;;;;;;;3.67;3.38;;;;;;;17.92;100.00;101093.41;4979319;28;20216;-72
2021/09/18 09:19:58;;;;;;;3.60;3.30;;;;;;;17.75;100.00;101098.75;4998618;28;20188;-73
2021/09/18 09:22:43;;;;;;;3.50;3.20;;;;;;;17.70;100.00;101095.31;4997972;28;20326;-73
2021/09/18 09:25:24;;;;;;;4.18;3.17;;;;;;;17.98;100.00;101096.88;5017950;28;20184;-73
2021/09/18 09:27:55;;;;;;;3.00;2.80;;;;;;;18.22;100.00;101090.81;4998477;28;20208;-73
2021/09/18 09:30:41;;;;;;;3.75;3.33;;;;;;;18.25;100.00;101084.69;4998224;28;20682;-70
2021/09/18 09:33:07;;;;;;;2.90;2.70;;;;;;;17.89;100.00;101094.06;4998288;28;20204;-70
2021/09/18 09:35:33;;;;;;;2.92;2.72;;;;;;;17.85;100.00;101092.22;5014393;28;20244;-73
2021/09/18 09:37:58;;;;;;;3.20;2.90;;;;;;;18.18;100.00;101089.00;4998531;28;20222;-72
2021/09/18 09:40:44;;;;;;;3.28;2.97;;;;;;;18.47;100.00;101083.88;5012270;28;20221;-73
2021/09/18 09:43:11;;;;;;;2.80;2.60;;;;;;;18.36;100.00;101086.06;4997401;28;20236;-72
2021/09/18 09:45:36;;;;;;;2.60;2.40;;;;;;;18.17;100.00;101090.94;4997668;28;20239;-72
2021/09/18 09:48:34;;;;;;;2.92;2.65;;;;;;;18.60;100.00;101092.06;4997819;28;20208;-73
2021/09/18 09:51:01;;;;;;;2.00;1.90;;;;;;;18.91;100.00;101085.44;4994997;28;20221;-72
2021/09/18 09:53:31;;;;;;;1.55;1.45;;;;;;;18.59;100.00;101093.19;4980660;28;20197;-70
2021/09/18 09:55:57;;;;;;;1.80;1.70;;;;;;;18.77;100.00;101090.25;5014872;28;20220;-72
2021/09/18 09:58:23;;;;;;;1.98;1.85;;;;;;;19.12;100.00;101095.63;5003570;28;20208;-72
2021/09/18 10:00:51;;;;;;;2.08;1.98;;;;;;;19.04;100.00;101090.88;4997871;28;20701;-72
2021/09/18 10:03:21;;;;;;;2.85;1.80;;;;;;;18.98;100.00;101097.66;4999584;28;20226;-72
2021/09/18 10:05:46;;;;;;;1.70;1.60;;;;;;;19.10;100.00;101094.31;5014035;28;20303;-73
2021/09/18 10:08:12;;;;;;;2.53;1.30;;;;;;;18.96;100.00;101088.88;4998794;28;20299;-71
2021/09/18 10:10:42;;;;;;;2.30;1.30;;;;;;;18.57;100.00;101095.41;4998825;28;20720;-72
2021/09/18 10:13:08;;;;;;;1.35;1.25;;;;;;;18.72;100.00;101093.13;5000217;28;20215;-73
2021/09/18 10:15:34;;;;;;;2.25;1.30;;;;;;;18.83;100.00;101088.13;4994152;28;20814;-73
2021/09/18 10:18:02;;;;;;;1.90;1.70;;;;;;;19.13;100.00;101088.97;5010761;28;20181;-74
2021/09/18 10:23:17;;;;;;;1.63;1.25;;;;;;;19.33;100.00;101083.69;5002734;28;20648;-74
2021/09/18 10:25:47;;;;;;;1.65;1.50;;;;;;;19.15;100.00;101086.72;5013848;28;20212;-73
2021/09/18 10:28:19;;;;;;;1.63;1.52;;;;;;;19.01;100.00;101094.28;4985836;28;20201;-73
2021/09/18 10:30:46;;;;;;;2.08;1.60;;;;;;;19.40;100.00;101088.75;5023251;28;20307;-73
2021/09/18 10:33:40;;;;;;;2.53;1.70;;;;;;;19.11;100.00;101087.69;4994179;28;20216;-72
2021/09/18 10:36:13;;;;;;;1.45;1.10;;;;;;;18.96;100.00;101088.88;5011582;28;20243;-72
2021/09/18 10:38:43;;;;;;;1.17;1.08;;;;;;;18.81;100.00;101095.91;5029910;28;20180;-73
2021/09/18 10:41:17;;;;;;;1.25;1.15;;;;;;;18.87;100.00;101089.16;5031178;28;20593;-73
2021/09/18 10:43:45;;;;;;;1.10;1.10;;;;;;;19.01;100.00;101087.94;4997986;28;20207;-72
2021/09/18 10:46:32;;;;;;;1.23;0.98;;;;;;;19.39;100.00;101089.88;5013249;28;20248;-73
2021/09/18 10:49:00;;;;;;;1.40;1.30;;;;;;;19.50;100.00;101100.28;5015957;28;20180;-72
2021/09/18 10:51:38;;;;;;;1.30;1.20;;;;;;;19.21;100.00;101098.41;4993689;28;20231;-72
2021/09/18 10:54:07;;;;;;;2.00;1.23;;;;;;;18.93;100.00;101100.50;4993610;28;20713;-72
2021/09/18 10:56:55;;;;;;;1.38;1.10;;;;;;;18.77;100.00;101103.16;5029123;28;20219;-73
2021/09/18 10:59:40;;;;;;;3.25;1.30;;;;;;;18.68;100.00;101105.06;5013045;28;20564;-73
2021/09/18 11:02:45;;;;;;;1.27;1.17;;;;;;;18.41;100.00;101118.97;5013132;28;20275;-72
2021/09/18 11:05:22;;;;;;;1.10;1.10;;;;;;;18.54;100.00;101112.59;4969769;28;20217;-72
2021/09/18 11:07:54;;;;;;;1.38;1.08;;;;;;;18.40;100.00;101111.81;4992890;28;20317;-73
2021/09/18 11:10:24;;;;;;;1.08;0.90;;;;;;;18.32;100.00;101114.53;5029263;28;20191;-73
2021/09/18 11:13:11;;;;;;;0.90;0.90;;;;;;;18.31;100.00;101113.69;5030173;28;20239;-71
2021/09/18 11:16:00;;;;;;;1.10;1.00;;;;;;;18.19;100.00;101127.19;5030071;28;20228;-71
2021/09/18 11:18:39;;;;;;;1.75;1.27;;;;;;;18.25;100.00;101114.13;5014449;28;20557;-74
2021/09/18 11:21:08;;;;;;;1.27;0.88;;;;;;;18.23;100.00;101125.44;4997222;28;20215;-72
2021/09/18 11:23:35;;;;;;;1.17;1.08;;;;;;;18.50;100.00;101117.91;5013716;28;20200;-71
2021/09/18 11:26:01;;;;;;;1.50;1.10;;;;;;;18.64;100.00;101117.81;5028555;28;20258;-73